Portada
METAR-TAF:

METAR-TAF

Aeroports :

Colombo, Sri Lanka

latitud: 07-10N, longitud: 079-53E, altitud: 8 m

Observació

L'informe es va fer fa 1 hora i 13 minuts, a les 14:10 UTC
Vent 4 kt del Nord, variant entre Nord/Nord-Oest i Nord-Est
Temperatura 28°C
Humitat 74%
Pressió 1012 hPa
Visibilitat 10 km o més
sense núvols per sota de 1500 mi sense presència de cumulonimbus.

METAR: VCBI 181410Z 01004KT 330V040 CAVOK 28/23 Q1012 NOSIG

Hora: 20:53 (15:23 UTC)

Pronòstic

L'informe es va fer fa 4 hores i 23 minuts, a les 11:00 UTC
Pronòstic vàlid del 18 a les 12 UTC al 19 a les 18 UTC
Vent 8 kt del Nord-Est
Visibilitat 10 km o més
Escasses núvols a una alçada de 2000 ft

TAF: VCBI 181100Z 1812/1918 05008KT 9999 FEW020 TX34/1908Z TN24/1900Z

Observacions i pronòstics meteorològics de més de 4000 aeroports (METAR i TAF).

Les estacions disponibles són els punts grocs i vermells al mapa.

Posi el ratolí al punt desitjat per veure el nom de l'estació.

Feu clic per veure les observacions i els pronòstics meteorològics.

Per canviar el mapa: feu clic els botons verds amb una creu de color negre per apropar; al botó verd amb un guió per allunyar la imatge; o en les fletxes verdes per a mapes adjacents.


METAR-TAF: